createdAt,value
2017-03-01T00:00:01.249Z,89.34
2017-03-01T00:00:05.808Z,88.68
2017-03-01T00:00:10.183Z,88.48
2017-03-01T00:00:14.686Z,88.39
2017-03-01T00:00:19.340Z,88.58
2017-03-01T00:00:23.989Z,88.48
2017-03-01T00:00:28.495Z,88.68
2017-03-01T00:00:32.710Z,88.48
2017-03-01T00:00:37.366Z,88.29
2017-03-01T00:00:42.031Z,88.29
2017-03-01T00:00:46.679Z,88.58
2017-03-01T00:00:51.308Z,88.77
2017-03-01T00:00:55.799Z,88.96
2017-03-01T00:01:00.455Z,88.96
2017-03-01T00:01:04.958Z,88.68
2017-03-01T00:01:09.460Z,88.77
2017-03-01T00:01:13.970Z,88.39
2017-03-01T00:01:18.462Z,88.68
2017-03-01T00:01:23.103Z,88.39
2017-03-01T00:01:27.457Z,88.39
2017-03-01T00:01:31.975Z,88.39
2017-03-01T00:01:36.449Z,88.87
2017-03-01T00:01:40.806Z,88.87
2017-03-01T00:01:45.437Z,88.48
2017-03-01T00:01:50.081Z,88.2
2017-03-01T00:01:54.740Z,88.29
2017-03-01T00:01:59.374Z,88.39
2017-03-01T00:02:03.998Z,88.58
2017-03-01T00:02:08.510Z,88.48
2017-03-01T00:02:13.164Z,88.58
2017-03-01T00:02:17.815Z,88.58
2017-03-01T00:02:22.437Z,88.58
2017-03-01T00:02:27.069Z,88.1
2017-03-01T00:02:31.569Z,88.01
2017-03-01T00:02:36.081Z,88.1
2017-03-01T00:02:40.445Z,88.68
2017-03-01T00:02:45.126Z,88.39
2017-03-01T00:02:49.809Z,87.82
2017-03-01T00:02:54.452Z,88.2
2017-03-01T00:02:59.098Z,88.1
2017-03-01T00:03:03.805Z,88.1
2017-03-01T00:03:08.448Z,87.63
2017-03-01T00:03:13.089Z,87.82
2017-03-01T00:03:17.733Z,87.82
2017-03-01T00:03:22.373Z,88.58
2017-03-01T00:03:27.022Z,87.92
2017-03-01T00:03:31.520Z,87.73
2017-03-01T00:03:36.024Z,87.63
2017-03-01T00:03:40.706Z,87.63
2017-03-01T00:03:45.352Z,87.92
2017-03-01T00:03:49.851Z,87.45
2017-03-01T00:03:54.509Z,88.1
2017-03-01T00:03:59.172Z,87.45
2017-03-01T00:04:04.122Z,88.01
2017-03-01T00:04:08.623Z,88.58
2017-03-01T00:04:13.118Z,88.29
2017-03-01T00:04:17.754Z,87.54
2017-03-01T00:04:22.387Z,87.92
2017-03-01T00:04:26.873Z,87.92
2017-03-01T00:04:31.227Z,87.92
2017-03-01T00:04:35.583Z,87.73
2017-03-01T00:04:40.254Z,87.92
2017-03-01T00:04:44.734Z,87.92
2017-03-01T00:04:49.096Z,87.82
2017-03-01T00:04:53.730Z,87.82
2017-03-01T00:04:58.361Z,87.35
2017-03-01T00:05:02.995Z,87.16
2017-03-01T00:05:07.494Z,87.35
2017-03-01T00:05:12.127Z,86.97
2017-03-01T00:05:16.765Z,86.97
2017-03-01T00:05:21.404Z,87.06
2017-03-01T00:05:26.059Z,87.25
2017-03-01T00:05:30.559Z,87.06
2017-03-01T00:05:35.053Z,86.87
2017-03-01T00:05:39.705Z,87.25
2017-03-01T00:05:44.236Z,86.87
2017-03-01T00:05:48.885Z,87.35
2017-03-01T00:05:53.535Z,86.87
2017-03-01T00:05:58.188Z,86.78
2017-03-01T00:06:02.835Z,86.97
2017-03-01T00:06:07.323Z,86.87
2017-03-01T00:06:11.974Z,86.97
2017-03-01T00:06:16.632Z,86.87
2017-03-01T00:06:21.263Z,85.93
2017-03-01T00:06:25.601Z,85.93
2017-03-01T00:06:29.824Z,86.3
2017-03-01T00:06:34.481Z,85.55
2017-03-01T00:06:39.137Z,85.07
2017-03-01T00:06:43.803Z,84.59
2017-03-01T00:06:48.431Z,84.69
2017-03-01T00:06:52.942Z,84.78
2017-03-01T00:06:57.426Z,84.88
2017-03-01T00:07:02.327Z,84.69
2017-03-01T00:07:06.821Z,84.98
2017-03-01T00:07:11.324Z,85.55
2017-03-01T00:07:15.956Z,85.45
2017-03-01T00:07:20.475Z,85.36
2017-03-01T00:07:25.008Z,85.74
2017-03-01T00:07:29.344Z,85.74
2017-03-01T00:07:33.999Z,85.55
2017-03-01T00:07:38.358Z,85.45
2017-03-01T00:07:42.838Z,85.45
2017-03-01T00:07:47.499Z,85.45
2017-03-01T00:07:52.148Z,84.69
2017-03-01T00:07:56.814Z,84.69
2017-03-01T00:08:01.481Z,84.88
2017-03-01T00:08:05.840Z,84.69
2017-03-01T00:08:10.364Z,84.98
2017-03-01T00:08:15.030Z,84.88
2017-03-01T00:08:19.661Z,85.07
2017-03-01T00:08:23.997Z,84.98
2017-03-01T00:08:28.349Z,84.78
2017-03-01T00:08:32.850Z,85.07
2017-03-01T00:08:37.349Z,85.07
2017-03-01T00:08:42.010Z,85.17
2017-03-01T00:08:46.501Z,85.45
2017-03-01T00:08:51.008Z,85.55
2017-03-01T00:08:55.638Z,85.55
2017-03-01T00:09:00.310Z,85.74
2017-03-01T00:09:04.879Z,86.11
2017-03-01T00:09:09.529Z,85.83
2017-03-01T00:09:14.031Z,85.83
2017-03-01T00:09:18.699Z,85.93
2017-03-01T00:09:23.333Z,86.02
2017-03-01T00:09:27.578Z,85.93
2017-03-01T00:09:31.957Z,86.49
2017-03-01T00:09:36.609Z,86.21
2017-03-01T00:09:40.967Z,86.49
2017-03-01T00:09:45.616Z,86.4
2017-03-01T00:09:50.111Z,86.78
2017-03-01T00:09:54.781Z,86.68
2017-03-01T00:09:59.423Z,86.21
2017-03-01T00:10:03.655Z,86.68
2017-03-01T00:10:08.013Z,86.68
2017-03-01T00:10:12.659Z,85.93
2017-03-01T00:10:17.311Z,86.11
2017-03-01T00:10:21.793Z,85.93
2017-03-01T00:10:26.280Z,86.02
2017-03-01T00:10:30.917Z,85.64
2017-03-01T00:10:35.565Z,86.4
2017-03-01T00:10:40.223Z,86.49
2017-03-01T00:10:44.855Z,86.02
2017-03-01T00:10:49.358Z,86.02
2017-03-01T00:10:53.988Z,86.11
2017-03-01T00:10:58.654Z,85.93
2017-03-01T00:11:03.261Z,86.49
2017-03-01T00:11:07.766Z,86.4
2017-03-01T00:11:12.416Z,86.49
2017-03-01T00:11:17.091Z,86.78
2017-03-01T00:11:21.587Z,85.93
2017-03-01T00:11:26.082Z,86.02
2017-03-01T00:11:30.429Z,86.59
2017-03-01T00:11:35.078Z,86.02
2017-03-01T00:11:39.591Z,86.02
2017-03-01T00:11:44.251Z,85.74
2017-03-01T00:11:48.452Z,85.93
2017-03-01T00:11:53.074Z,86.3
2017-03-01T00:11:57.726Z,86.02
2017-03-01T00:12:02.384Z,86.68
2017-03-01T00:12:06.880Z,86.21
2017-03-01T00:12:11.547Z,86.59
2017-03-01T00:12:16.051Z,86.4
2017-03-01T00:12:20.549Z,86.4
2017-03-01T00:12:25.183Z,85.74
2017-03-01T00:12:29.534Z,85.93
2017-03-01T00:12:34.030Z,86.11
2017-03-01T00:12:38.682Z,85.83
2017-03-01T00:12:43.346Z,86.3
2017-03-01T00:12:47.849Z,86.11
2017-03-01T00:12:52.479Z,86.49
2017-03-01T00:12:57.116Z,86.59
2017-03-01T00:13:01.762Z,86.4
2017-03-01T00:13:06.423Z,86.4
2017-03-01T00:13:11.049Z,86.59
2017-03-01T00:13:15.568Z,86.4
2017-03-01T00:13:20.229Z,86.4
2017-03-01T00:13:24.869Z,86.3
2017-03-01T00:13:29.068Z,86.21
2017-03-01T00:13:33.730Z,86.11
2017-03-01T00:13:38.225Z,85.74
2017-03-01T00:13:42.868Z,85.93
2017-03-01T00:13:47.540Z,85.93
2017-03-01T00:13:52.183Z,86.21
2017-03-01T00:13:56.823Z,85.74
2017-03-01T00:14:01.457Z,86.3
2017-03-01T00:14:05.966Z,85.93
2017-03-01T00:14:10.183Z,85.55
2017-03-01T00:14:14.855Z,84.88
2017-03-01T00:14:19.348Z,85.17
2017-03-01T00:14:23.978Z,84.59
2017-03-01T00:14:28.355Z,84.69
2017-03-01T00:14:32.873Z,84.5
2017-03-01T00:14:37.533Z,85.07
2017-03-01T00:14:42.189Z,84.5
2017-03-01T00:14:46.873Z,83.84
2017-03-01T00:14:51.218Z,84.03
2017-03-01T00:14:55.861Z,83.94
2017-03-01T00:15:00.508Z,83.55
2017-03-01T00:15:05.025Z,83.94
2017-03-01T00:15:09.651Z,83.65
2017-03-01T00:15:14.322Z,83.74
2017-03-01T00:15:18.821Z,84.22
2017-03-01T00:15:23.483Z,83.84
2017-03-01T00:15:27.971Z,84.03
2017-03-01T00:15:32.641Z,84.22
2017-03-01T00:15:37.268Z,84.12
2017-03-01T00:15:41.920Z,84.12
2017-03-01T00:15:46.574Z,83.74
2017-03-01T00:15:51.066Z,84.12
2017-03-01T00:15:55.702Z,84.12
2017-03-01T00:16:00.351Z,83.84
2017-03-01T00:16:05.055Z,83.84
2017-03-01T00:16:09.690Z,84.22
2017-03-01T00:16:14.215Z,83.84
2017-03-01T00:16:18.859Z,84.59
2017-03-01T00:16:23.510Z,83.74
2017-03-01T00:16:28.161Z,83.94
2017-03-01T00:16:32.832Z,83.74
2017-03-01T00:16:37.502Z,84.12
2017-03-01T00:16:42.152Z,83.46
2017-03-01T00:16:46.792Z,83.84
2017-03-01T00:16:51.292Z,83.65
2017-03-01T00:16:55.936Z,83.65
2017-03-01T00:17:00.581Z,83.55
2017-03-01T00:17:05.381Z,83.65
2017-03-01T00:17:10.047Z,83.94
2017-03-01T00:17:14.694Z,83.94
2017-03-01T00:17:19.333Z,84.12
2017-03-01T00:17:23.986Z,84.03
2017-03-01T00:17:28.486Z,84.03
2017-03-01T00:17:32.828Z,84.03
2017-03-01T00:17:37.484Z,83.84
2017-03-01T00:17:42.186Z,83.46
2017-03-01T00:17:46.843Z,83.27
2017-03-01T00:17:51.479Z,83.46
2017-03-01T00:17:56.141Z,83.27
2017-03-01T00:18:00.798Z,83.17
2017-03-01T00:18:05.763Z,82.98
2017-03-01T00:18:10.261Z,82.79
2017-03-01T00:18:14.785Z,83.36
2017-03-01T00:18:19.438Z,83.27
2017-03-01T00:18:24.097Z,83.36
2017-03-01T00:18:28.605Z,83.36
2017-03-01T00:18:32.994Z,83.36
2017-03-01T00:18:37.641Z,83.17
2017-03-01T00:18:42.282Z,82.6
2017-03-01T00:18:46.955Z,82.6
2017-03-01T00:18:51.626Z,82.42
2017-03-01T00:18:56.134Z,82.04
2017-03-01T00:19:00.795Z,81.94
2017-03-01T00:19:05.734Z,81.94
2017-03-01T00:19:10.375Z,82.51
2017-03-01T00:19:14.865Z,82.13
2017-03-01T00:19:19.380Z,82.7
2017-03-01T00:19:23.878Z,82.04
2017-03-01T00:19:28.392Z,81.27
2017-03-01T00:19:32.746Z,82.04
2017-03-01T00:19:37.418Z,82.04
2017-03-01T00:19:42.093Z,82.6
2017-03-01T00:19:46.738Z,82.32
2017-03-01T00:19:51.378Z,82.32
2017-03-01T00:19:56.004Z,82.42
2017-03-01T00:20:00.661Z,82.23
2017-03-01T00:20:05.211Z,82.23
2017-03-01T00:20:09.594Z,82.13
2017-03-01T00:20:14.082Z,82.32
2017-03-01T00:20:18.577Z,82.7
2017-03-01T00:20:23.242Z,82.13
2017-03-01T00:20:27.439Z,82.32
2017-03-01T00:20:31.804Z,82.32
2017-03-01T00:20:36.447Z,81.85
2017-03-01T00:20:41.080Z,80.99
2017-03-01T00:20:45.733Z,81.27
2017-03-01T00:20:50.230Z,81.66
2017-03-01T00:20:54.881Z,81.27
2017-03-01T00:20:59.528Z,80.99
2017-03-01T00:21:04.232Z,80.99
2017-03-01T00:21:08.589Z,81.37
2017-03-01T00:21:13.239Z,81.94
2017-03-01T00:21:17.757Z,81.66
2017-03-01T00:21:22.412Z,81.75
2017-03-01T00:21:26.924Z,81.94
2017-03-01T00:21:31.556Z,82.04
2017-03-01T00:21:36.209Z,82.04
2017-03-01T00:21:40.847Z,82.42
2017-03-01T00:21:45.343Z,82.51
2017-03-01T00:21:49.843Z,82.6
2017-03-01T00:21:54.340Z,82.32
2017-03-01T00:21:58.982Z,82.23
2017-03-01T00:22:03.731Z,82.04
2017-03-01T00:22:08.225Z,81.85
2017-03-01T00:22:12.566Z,81.94
2017-03-01T00:22:17.205Z,82.04
2017-03-01T00:22:21.702Z,81.47
2017-03-01T00:22:26.196Z,82.04
2017-03-01T00:22:30.390Z,81.85
2017-03-01T00:22:34.887Z,82.23
2017-03-01T00:22:39.537Z,80.9
2017-03-01T00:22:44.187Z,81.18
2017-03-01T00:22:48.671Z,81.56
2017-03-01T00:22:53.315Z,81.37
2017-03-01T00:22:57.671Z,81.47
2017-03-01T00:23:02.326Z,81.56
2017-03-01T00:23:06.994Z,81.66
2017-03-01T00:23:11.639Z,81.37
2017-03-01T00:23:16.270Z,80.43
2017-03-01T00:23:20.761Z,81.37
2017-03-01T00:23:25.429Z,81.47
2017-03-01T00:23:30.080Z,80.62
2017-03-01T00:23:34.736Z,80.9
2017-03-01T00:23:39.278Z,80.9
2017-03-01T00:23:43.942Z,81.09
2017-03-01T00:23:48.587Z,80.99
2017-03-01T00:23:53.250Z,81.18
2017-03-01T00:23:57.896Z,81.27
2017-03-01T00:24:02.721Z,80.9
2017-03-01T00:24:07.373Z,81.47
2017-03-01T00:24:12.019Z,81.18
2017-03-01T00:24:16.657Z,81.18
2017-03-01T00:24:21.153Z,80.99
2017-03-01T00:24:25.787Z,80.9
2017-03-01T00:24:30.129Z,81.37
2017-03-01T00:24:34.772Z,81.37
2017-03-01T00:24:39.424Z,81.27
2017-03-01T00:24:44.060Z,81.09
2017-03-01T00:24:48.727Z,81.18
2017-03-01T00:24:53.230Z,81.47
2017-03-01T00:24:57.863Z,81.56
2017-03-01T00:25:02.517Z,81.66
2017-03-01T00:25:07.009Z,81.56
2017-03-01T00:25:11.662Z,81.94
2017-03-01T00:25:16.319Z,81.94
2017-03-01T00:25:20.962Z,81.94
2017-03-01T00:25:25.619Z,82.04
2017-03-01T00:25:30.269Z,82.13
2017-03-01T00:25:34.757Z,82.04
2017-03-01T00:25:39.389Z,82.13
2017-03-01T00:25:44.019Z,82.42
2017-03-01T00:25:48.650Z,82.42
2017-03-01T00:25:53.304Z,82.04
2017-03-01T00:25:57.930Z,82.13
2017-03-01T00:26:02.683Z,82.32
2017-03-01T00:26:07.325Z,82.6
2017-03-01T00:26:11.668Z,82.42
2017-03-01T00:26:16.306Z,82.32
2017-03-01T00:26:20.948Z,82.51
2017-03-01T00:26:25.449Z,82.51
2017-03-01T00:26:29.950Z,82.32
2017-03-01T00:26:34.451Z,82.13
2017-03-01T00:26:39.108Z,81.94
2017-03-01T00:26:43.730Z,81.85
2017-03-01T00:26:48.238Z,82.13
2017-03-01T00:26:52.883Z,82.51
2017-03-01T00:26:57.521Z,82.42
2017-03-01T00:27:02.188Z,82.04
2017-03-01T00:27:06.688Z,82.42
2017-03-01T00:27:11.332Z,82.51
2017-03-01T00:27:15.825Z,82.13
2017-03-01T00:27:20.471Z,82.6
2017-03-01T00:27:25.136Z,82.42
2017-03-01T00:27:29.332Z,81.94
2017-03-01T00:27:33.827Z,81.94
2017-03-01T00:27:38.489Z,82.23
2017-03-01T00:27:43.119Z,82.23
2017-03-01T00:27:47.755Z,81.94
2017-03-01T00:27:52.086Z,81.56
2017-03-01T00:27:56.734Z,81.56
2017-03-01T00:28:01.226Z,81.94
2017-03-01T00:28:05.886Z,81.85
2017-03-01T00:28:10.405Z,81.85
2017-03-01T00:28:14.899Z,82.13
2017-03-01T00:28:19.538Z,82.04
2017-03-01T00:28:24.166Z,82.04
2017-03-01T00:28:28.552Z,82.32
2017-03-01T00:28:33.056Z,81.94
2017-03-01T00:28:37.695Z,81.94
2017-03-01T00:28:42.343Z,81.85
2017-03-01T00:28:46.848Z,82.04
2017-03-01T00:28:51.366Z,82.04
2017-03-01T00:28:56.029Z,82.32
2017-03-01T00:29:00.675Z,82.04
2017-03-01T00:29:05.322Z,82.04
2017-03-01T00:29:09.977Z,82.23
2017-03-01T00:29:14.646Z,82.13
2017-03-01T00:29:19.288Z,82.51
2017-03-01T00:29:23.783Z,82.42
2017-03-01T00:29:28.299Z,82.04
2017-03-01T00:29:32.799Z,82.13
2017-03-01T00:29:37.429Z,82.04
2017-03-01T00:29:42.076Z,81.94
2017-03-01T00:29:46.700Z,82.13
2017-03-01T00:29:51.204Z,82.23
2017-03-01T00:29:55.690Z,82.13
2017-03-01T00:30:00.178Z,82.04
2017-03-01T00:30:04.708Z,81.94
2017-03-01T00:30:09.046Z,82.04
2017-03-01T00:30:13.695Z,82.04
2017-03-01T00:30:18.063Z,82.32
2017-03-01T00:30:22.704Z,82.32
2017-03-01T00:30:27.214Z,82.42
2017-03-01T00:30:31.564Z,82.32
2017-03-01T00:30:35.929Z,82.13
2017-03-01T00:30:40.573Z,81.85
2017-03-01T00:30:45.223Z,82.13
2017-03-01T00:30:49.868Z,82.04
2017-03-01T00:30:54.549Z,82.51
2017-03-01T00:30:59.176Z,82.32
2017-03-01T00:31:03.810Z,81.85
2017-03-01T00:31:08.480Z,82.13
2017-03-01T00:31:13.139Z,82.42
2017-03-01T00:31:17.778Z,81.94
2017-03-01T00:31:22.135Z,81.37
2017-03-01T00:31:26.619Z,81.27
2017-03-01T00:31:31.101Z,81.37
2017-03-01T00:31:35.446Z,81.75
2017-03-01T00:31:40.096Z,81.09
2017-03-01T00:31:44.762Z,81.56
2017-03-01T00:31:49.275Z,81.75
2017-03-01T00:31:53.790Z,81.18
2017-03-01T00:31:58.277Z,80.99
2017-03-01T00:32:02.760Z,81.56
2017-03-01T00:32:07.396Z,80.99
2017-03-01T00:32:11.916Z,81.18
2017-03-01T00:32:16.394Z,81.37
2017-03-01T00:32:21.035Z,81.27
2017-03-01T00:32:25.687Z,81.37
2017-03-01T00:32:30.039Z,81.18
2017-03-01T00:32:34.571Z,81.37
2017-03-01T00:32:39.220Z,81.18
2017-03-01T00:32:43.566Z,81.18
2017-03-01T00:32:47.911Z,81.27
2017-03-01T00:32:52.571Z,80.99
2017-03-01T00:32:57.202Z,80.8
2017-03-01T00:33:01.722Z,80.99
2017-03-01T00:33:06.415Z,81.47
2017-03-01T00:33:11.063Z,80.8
2017-03-01T00:33:15.704Z,80.43
2017-03-01T00:33:20.352Z,81.47
2017-03-01T00:33:25.014Z,81.37
2017-03-01T00:33:29.494Z,81.27
2017-03-01T00:33:34.150Z,81.09
2017-03-01T00:33:38.648Z,81.18
2017-03-01T00:33:43.297Z,81.09
2017-03-01T00:33:47.943Z,81.47
2017-03-01T00:33:52.419Z,81.37
2017-03-01T00:33:56.908Z,81.66
2017-03-01T00:34:01.561Z,81.94
2017-03-01T00:34:06.221Z,81.75
2017-03-01T00:34:10.862Z,81.56
2017-03-01T00:34:15.499Z,81.75
2017-03-01T00:34:20.153Z,81.66
2017-03-01T00:34:24.794Z,81.75
2017-03-01T00:34:29.284Z,81.85
2017-03-01T00:34:33.795Z,81.75
2017-03-01T00:34:38.328Z,81.75
2017-03-01T00:34:42.978Z,81.56
2017-03-01T00:34:47.510Z,82.04
2017-03-01T00:34:52.165Z,82.04
2017-03-01T00:34:56.669Z,82.04
2017-03-01T00:35:01.309Z,82.42
2017-03-01T00:35:05.795Z,82.13
2017-03-01T00:35:10.436Z,81.94
2017-03-01T00:35:14.931Z,82.04
2017-03-01T00:35:19.603Z,82.13
2017-03-01T00:35:24.252Z,82.04
2017-03-01T00:35:28.882Z,81.94
2017-03-01T00:35:33.400Z,81.56
2017-03-01T00:35:38.046Z,81.66
2017-03-01T00:35:42.675Z,81.66
2017-03-01T00:35:47.199Z,81.85
2017-03-01T00:35:51.703Z,81.75
2017-03-01T00:35:56.332Z,81.85
2017-03-01T00:36:00.971Z,82.23
2017-03-01T00:36:05.628Z,81.56
2017-03-01T00:36:10.129Z,81.85
2017-03-01T00:36:14.789Z,81.94
2017-03-01T00:36:19.290Z,81.37
2017-03-01T00:36:23.948Z,80.99
2017-03-01T00:36:28.444Z,81.37
2017-03-01T00:36:32.949Z,81.18
2017-03-01T00:36:37.437Z,81.27
2017-03-01T00:36:41.937Z,81.37
2017-03-01T00:36:46.440Z,81.27
2017-03-01T00:36:51.101Z,80.99
2017-03-01T00:36:55.761Z,81.27
2017-03-01T00:37:00.329Z,81.18
2017-03-01T00:37:05.122Z,81.37
2017-03-01T00:37:09.764Z,81.09
2017-03-01T00:37:14.402Z,81.37
2017-03-01T00:37:18.918Z,81.66
2017-03-01T00:37:23.426Z,80.99
2017-03-01T00:37:27.949Z,81.37
2017-03-01T00:37:32.460Z,81.56
2017-03-01T00:37:37.108Z,81.37
2017-03-01T00:37:41.776Z,81.75
2017-03-01T00:37:46.408Z,81.47
2017-03-01T00:37:50.911Z,81.37
2017-03-01T00:37:55.414Z,80.8
2017-03-01T00:38:00.046Z,80.8
2017-03-01T00:38:04.960Z,80.8
2017-03-01T00:38:09.609Z,80.99
2017-03-01T00:38:14.095Z,80.62
2017-03-01T00:38:18.740Z,80.71
2017-03-01T00:38:23.380Z,80.71
2017-03-01T00:38:27.870Z,80.8
2017-03-01T00:38:32.369Z,80.9
2017-03-01T00:38:37.029Z,80.8
2017-03-01T00:38:41.527Z,80.9
2017-03-01T00:38:46.187Z,80.71
2017-03-01T00:38:50.816Z,80.71
2017-03-01T00:38:55.479Z,80.71
2017-03-01T00:38:59.991Z,80.8
2017-03-01T00:39:04.800Z,80.71
2017-03-01T00:39:09.434Z,80.8
2017-03-01T00:39:13.938Z,80.8
2017-03-01T00:39:18.588Z,80.8
2017-03-01T00:39:23.098Z,80.9
2017-03-01T00:39:27.593Z,80.62
2017-03-01T00:39:32.247Z,80.71
2017-03-01T00:39:36.889Z,80.71
2017-03-01T00:39:41.522Z,80.8
2017-03-01T00:39:46.166Z,80.43
2017-03-01T00:39:50.652Z,80.8
2017-03-01T00:39:55.151Z,80.9
2017-03-01T00:39:59.646Z,81.09
2017-03-01T00:40:04.145Z,81.09
2017-03-01T00:40:08.632Z,81.56
2017-03-01T00:40:13.269Z,81.27
2017-03-01T00:40:17.903Z,81.27
2017-03-01T00:40:22.385Z,81.27
2017-03-01T00:40:27.032Z,81.27
2017-03-01T00:40:31.546Z,81.18
2017-03-01T00:40:36.028Z,81.09
2017-03-01T00:40:40.685Z,80.9
2017-03-01T00:40:45.364Z,81.56
2017-03-01T00:40:50.026Z,80.9
2017-03-01T00:40:54.522Z,81.37
2017-03-01T00:40:59.194Z,81.56
2017-03-01T00:41:04.128Z,81.27
2017-03-01T00:41:08.623Z,81.18
2017-03-01T00:41:13.301Z,81.09
2017-03-01T00:41:17.937Z,81.37
2017-03-01T00:41:22.580Z,81.18
2017-03-01T00:41:27.238Z,81.18
2017-03-01T00:41:31.715Z,80.99
2017-03-01T00:41:36.391Z,81.18
2017-03-01T00:41:40.899Z,81.27
2017-03-01T00:41:45.399Z,81.18
2017-03-01T00:41:50.066Z,80.99
2017-03-01T00:41:54.711Z,81.18
2017-03-01T00:41:59.344Z,80.99
2017-03-01T00:42:03.991Z,80.99
2017-03-01T00:42:08.523Z,80.99
2017-03-01T00:42:13.029Z,80.99
2017-03-01T00:42:17.672Z,80.8
2017-03-01T00:42:22.183Z,81.47
2017-03-01T00:42:26.834Z,81.18
2017-03-01T00:42:31.054Z,80.52
2017-03-01T00:42:35.558Z,80.71
2017-03-01T00:42:40.194Z,80.8
2017-03-01T00:42:44.840Z,80.71
2017-03-01T00:42:49.488Z,80.71
2017-03-01T00:42:54.133Z,80.71
2017-03-01T00:42:58.613Z,80.62
2017-03-01T00:43:03.372Z,80.71
2017-03-01T00:43:07.999Z,80.62
2017-03-01T00:43:12.508Z,80.71
2017-03-01T00:43:17.158Z,80.8
2017-03-01T00:43:21.651Z,80.9
2017-03-01T00:43:26.137Z,80.9
2017-03-01T00:43:30.773Z,80.99
2017-03-01T00:43:35.119Z,80.9
2017-03-01T00:43:39.779Z,80.8
2017-03-01T00:43:44.276Z,81.09
2017-03-01T00:43:48.913Z,81.09
2017-03-01T00:43:53.441Z,80.99
2017-03-01T00:43:57.947Z,81.47
2017-03-01T00:44:02.596Z,81.37
2017-03-01T00:44:07.098Z,81.47
2017-03-01T00:44:11.583Z,80.9
2017-03-01T00:44:16.219Z,80.8
2017-03-01T00:44:20.705Z,81.09
2017-03-01T00:44:25.347Z,81.09
2017-03-01T00:44:29.981Z,80.9
2017-03-01T00:44:34.505Z,80.8
2017-03-01T00:44:39.133Z,80.8
2017-03-01T00:44:43.776Z,81.18
2017-03-01T00:44:48.297Z,80.99
2017-03-01T00:44:52.949Z,81.09
2017-03-01T00:44:57.599Z,81.09
2017-03-01T00:45:02.333Z,81.18
2017-03-01T00:45:06.976Z,81.09
2017-03-01T00:45:11.644Z,80.71
2017-03-01T00:45:16.297Z,80.8
2017-03-01T00:45:20.795Z,80.71
2017-03-01T00:45:25.312Z,80.62
2017-03-01T00:45:29.533Z,80.71
2017-03-01T00:45:34.175Z,81.27
2017-03-01T00:45:38.678Z,80.9
2017-03-01T00:45:43.318Z,81.09
2017-03-01T00:45:47.818Z,81.37
2017-03-01T00:45:52.454Z,81.47
2017-03-01T00:45:56.963Z,81.37
2017-03-01T00:46:01.854Z,81.18
2017-03-01T00:46:06.508Z,81.18
2017-03-01T00:46:10.842Z,81.27
2017-03-01T00:46:15.496Z,81.56
2017-03-01T00:46:20.163Z,81.56
2017-03-01T00:46:24.832Z,81.37
2017-03-01T00:46:29.462Z,81.37
2017-03-01T00:46:34.101Z,81.66
2017-03-01T00:46:38.741Z,81.75
2017-03-01T00:46:43.405Z,81.66
2017-03-01T00:46:48.037Z,81.75
2017-03-01T00:46:52.715Z,81.85
2017-03-01T00:46:57.205Z,81.66
2017-03-01T00:47:01.718Z,82.04
2017-03-01T00:47:06.373Z,82.04
2017-03-01T00:47:10.888Z,81.94
2017-03-01T00:47:15.528Z,81.75
2017-03-01T00:47:20.178Z,81.56
2017-03-01T00:47:24.829Z,81.75
2017-03-01T00:47:29.198Z,81.75
2017-03-01T00:47:33.840Z,81.75
2017-03-01T00:47:38.481Z,81.37
2017-03-01T00:47:43.136Z,81.37
2017-03-01T00:47:47.766Z,81.27
2017-03-01T00:47:52.413Z,81.37
2017-03-01T00:47:57.073Z,81.37
2017-03-01T00:48:01.818Z,81.09
2017-03-01T00:48:06.327Z,81.37
2017-03-01T00:48:10.966Z,80.99
2017-03-01T00:48:15.617Z,81.27
2017-03-01T00:48:20.284Z,81.09
2017-03-01T00:48:24.641Z,81.56
2017-03-01T00:48:29.134Z,80.9
2017-03-01T00:48:33.630Z,81.47
2017-03-01T00:48:38.287Z,81.09
2017-03-01T00:48:42.939Z,80.99
2017-03-01T00:48:47.578Z,80.9
2017-03-01T00:48:52.235Z,80.8
2017-03-01T00:48:56.863Z,80.99
2017-03-01T00:49:01.519Z,80.43
2017-03-01T00:49:06.434Z,80.62
2017-03-01T00:49:11.127Z,80.8
2017-03-01T00:49:15.608Z,80.8
2017-03-01T00:49:20.278Z,80.8
2017-03-01T00:49:24.621Z,81.18
2017-03-01T00:49:29.123Z,81.09
2017-03-01T00:49:33.628Z,81.09
2017-03-01T00:49:38.267Z,81.09
2017-03-01T00:49:42.777Z,80.62
2017-03-01T00:49:47.259Z,81.09
2017-03-01T00:49:51.750Z,80.9
2017-03-01T00:49:56.394Z,81.09
2017-03-01T00:50:00.888Z,80.43
2017-03-01T00:50:05.535Z,80.52
2017-03-01T00:50:10.033Z,80.9
2017-03-01T00:50:14.680Z,80.99
2017-03-01T00:50:19.053Z,81.09
2017-03-01T00:50:23.400Z,80.9
2017-03-01T00:50:27.928Z,80.9
2017-03-01T00:50:32.442Z,81.37
2017-03-01T00:50:37.102Z,81.27
2017-03-01T00:50:41.755Z,81.27
2017-03-01T00:50:46.400Z,81.47
2017-03-01T00:50:51.046Z,81.27
2017-03-01T00:50:55.696Z,81.27
2017-03-01T00:51:00.334Z,80.99
2017-03-01T00:51:05.293Z,81.27
2017-03-01T00:51:09.923Z,81.18
2017-03-01T00:51:14.559Z,81.27
2017-03-01T00:51:19.192Z,81.37
2017-03-01T00:51:23.526Z,81.56
2017-03-01T00:51:28.177Z,81.56
2017-03-01T00:51:32.519Z,81.37
2017-03-01T00:51:37.017Z,81.56
2017-03-01T00:51:41.534Z,81.56
2017-03-01T00:51:46.202Z,81.27
2017-03-01T00:51:50.864Z,80.99
2017-03-01T00:51:55.346Z,81.27
2017-03-01T00:51:59.984Z,81.09
2017-03-01T00:52:04.969Z,81.37
2017-03-01T00:52:09.475Z,81.27
2017-03-01T00:52:14.106Z,81.09
2017-03-01T00:52:18.738Z,81.37
2017-03-01T00:52:23.382Z,81.37
2017-03-01T00:52:27.877Z,81.27
2017-03-01T00:52:32.381Z,81.27
2017-03-01T00:52:37.033Z,81.27
2017-03-01T00:52:41.692Z,81.18
2017-03-01T00:52:46.179Z,81.09
2017-03-01T00:52:50.803Z,81.37
2017-03-01T00:52:55.458Z,81.66
2017-03-01T00:53:00.097Z,81.75
2017-03-01T00:53:04.844Z,81.75
2017-03-01T00:53:09.487Z,81.56
2017-03-01T00:53:14.115Z,81.66
2017-03-01T00:53:18.751Z,81.56
2017-03-01T00:53:23.424Z,81.56
2017-03-01T00:53:27.966Z,81.37
2017-03-01T00:53:32.609Z,81.85
2017-03-01T00:53:37.101Z,81.18
2017-03-01T00:53:41.605Z,81.37
2017-03-01T00:53:46.246Z,81.66
2017-03-01T00:53:50.932Z,81.09
2017-03-01T00:53:55.576Z,81.18
2017-03-01T00:54:00.062Z,81.37
2017-03-01T00:54:04.562Z,81.37
2017-03-01T00:54:09.209Z,81.18
2017-03-01T00:54:13.719Z,81.66
2017-03-01T00:54:18.400Z,81.94
2017-03-01T00:54:22.898Z,81.85
2017-03-01T00:54:27.398Z,81.75
2017-03-01T00:54:31.897Z,81.75
2017-03-01T00:54:36.384Z,81.85
2017-03-01T00:54:40.885Z,81.56
2017-03-01T00:54:45.380Z,82.04
2017-03-01T00:54:50.024Z,82.04
2017-03-01T00:54:54.670Z,81.94
2017-03-01T00:54:59.192Z,82.04
2017-03-01T00:55:03.704Z,81.85
2017-03-01T00:55:08.375Z,82.04
2017-03-01T00:55:13.044Z,82.04
2017-03-01T00:55:17.696Z,82.13
2017-03-01T00:55:22.198Z,81.85
2017-03-01T00:55:26.687Z,82.04
2017-03-01T00:55:31.046Z,81.85
2017-03-01T00:55:35.538Z,81.85
2017-03-01T00:55:39.901Z,81.85
2017-03-01T00:55:44.547Z,81.94
2017-03-01T00:55:49.186Z,81.56
2017-03-01T00:55:53.678Z,81.85
2017-03-01T00:55:58.325Z,81.94
2017-03-01T00:56:03.118Z,81.94
2017-03-01T00:56:07.612Z,82.04
2017-03-01T00:56:12.269Z,82.04
2017-03-01T00:56:16.921Z,82.13
2017-03-01T00:56:21.418Z,81.94
2017-03-01T00:56:26.039Z,81.94
2017-03-01T00:56:30.535Z,82.23
2017-03-01T00:56:34.877Z,82.23
2017-03-01T00:56:39.525Z,82.04
2017-03-01T00:56:44.036Z,82.04
2017-03-01T00:56:48.684Z,82.51
2017-03-01T00:56:53.340Z,82.04
2017-03-01T00:56:57.826Z,81.94
2017-03-01T00:57:02.723Z,82.13
2017-03-01T00:57:07.394Z,82.04
2017-03-01T00:57:11.876Z,82.04
2017-03-01T00:57:16.513Z,82.04
2017-03-01T00:57:20.715Z,82.13
2017-03-01T00:57:25.207Z,81.94
2017-03-01T00:57:29.868Z,82.13
2017-03-01T00:57:34.523Z,82.04
2017-03-01T00:57:39.051Z,82.04
2017-03-01T00:57:43.694Z,82.32
2017-03-01T00:57:48.223Z,82.13
2017-03-01T00:57:52.870Z,82.23
2017-03-01T00:57:57.514Z,82.51
2017-03-01T00:58:02.008Z,82.6
2017-03-01T00:58:06.492Z,81.94
2017-03-01T00:58:10.846Z,82.13
2017-03-01T00:58:15.482Z,81.85
2017-03-01T00:58:20.125Z,81.94
2017-03-01T00:58:24.616Z,82.23
2017-03-01T00:58:29.123Z,82.13
2017-03-01T00:58:33.635Z,82.23
2017-03-01T00:58:38.264Z,82.51
2017-03-01T00:58:42.942Z,82.13
2017-03-01T00:58:47.587Z,82.23
2017-03-01T00:58:52.232Z,82.13
2017-03-01T00:58:56.880Z,81.85
2017-03-01T00:59:01.392Z,82.04
2017-03-01T00:59:06.060Z,82.04
2017-03-01T00:59:10.583Z,82.04